createdAt,value
2017-07-16T00:00:52.812Z,0
2017-07-16T00:02:05.045Z,0
2017-07-16T00:03:17.317Z,0
2017-07-16T00:04:29.949Z,0
2017-07-16T00:05:42.249Z,0
2017-07-16T00:06:54.818Z,0
2017-07-16T00:08:06.799Z,0
2017-07-16T00:09:19.436Z,0
2017-07-16T00:10:31.667Z,0
2017-07-16T00:11:43.604Z,0
2017-07-16T00:12:56.209Z,0
2017-07-16T00:14:08.495Z,0
2017-07-16T00:15:20.519Z,0
2017-07-16T00:16:33.090Z,0
2017-07-16T00:17:45.686Z,0
2017-07-16T00:18:58.458Z,0
2017-07-16T00:20:10.446Z,0
2017-07-16T00:21:22.748Z,0
2017-07-16T00:22:34.112Z,0
2017-07-16T00:23:45.409Z,0
2017-07-16T00:24:57.715Z,0
2017-07-16T00:26:10.308Z,0
2017-07-16T00:27:22.623Z,0
2017-07-16T00:28:34.950Z,0
2017-07-16T00:29:46.669Z,0
2017-07-16T00:30:58.918Z,0
2017-07-16T00:32:11.180Z,0
2017-07-16T00:33:23.452Z,0
2017-07-16T00:34:35.786Z,0
2017-07-16T00:35:48.072Z,0
2017-07-16T00:37:00.725Z,0
2017-07-16T00:38:13.022Z,0
2017-07-16T00:39:25.631Z,0
2017-07-16T00:40:37.631Z,0
2017-07-16T00:41:49.974Z,0
2017-07-16T00:43:01.674Z,0
2017-07-16T00:44:13.973Z,0
2017-07-16T00:45:26.205Z,0
2017-07-16T00:46:38.498Z,0
2017-07-16T00:47:51.091Z,0
2017-07-16T00:49:03.672Z,0
2017-07-16T00:50:16.282Z,0
2017-07-16T00:51:28.567Z,0
2017-07-16T00:52:40.523Z,0
2017-07-16T00:53:52.852Z,0
2017-07-16T00:55:05.147Z,0
2017-07-16T00:56:17.432Z,0
2017-07-16T00:57:29.971Z,0
2017-07-16T00:58:42.241Z,0
2017-07-16T00:59:54.490Z,0
2017-07-16T01:01:06.464Z,0
2017-07-16T01:02:19.059Z,0
2017-07-16T01:03:31.693Z,0
2017-07-16T01:04:43.970Z,0
2017-07-16T01:05:56.256Z,0
2017-07-16T01:07:08.574Z,0
2017-07-16T01:08:20.842Z,0
2017-07-16T01:09:33.418Z,0
2017-07-16T01:10:46.033Z,0
2017-07-16T01:11:58.029Z,0
2017-07-16T01:13:09.971Z,0
2017-07-16T01:14:22.530Z,0
2017-07-16T01:15:34.850Z,0
2017-07-16T01:16:47.166Z,0
2017-07-16T01:17:59.838Z,0
2017-07-16T01:19:11.774Z,0
2017-07-16T01:20:24.394Z,0
2017-07-16T01:21:37.038Z,0
2017-07-16T01:22:49.006Z,0
2017-07-16T01:24:01.607Z,0
2017-07-16T01:25:14.178Z,0
2017-07-16T01:26:26.766Z,0
2017-07-16T01:27:39.356Z,0
2017-07-16T01:28:52.244Z,0
2017-07-16T01:30:04.565Z,0
2017-07-16T01:31:17.209Z,0
2017-07-16T01:32:29.463Z,0
2017-07-16T01:33:42.097Z,0
2017-07-16T01:34:54.396Z,0
2017-07-16T01:36:06.704Z,0
2017-07-16T01:37:19.330Z,0
2017-07-16T01:38:31.914Z,0
2017-07-16T01:39:44.480Z,0
2017-07-16T01:40:56.467Z,0
2017-07-16T01:42:08.771Z,0
2017-07-16T01:43:21.085Z,0
2017-07-16T01:44:33.748Z,0
2017-07-16T01:45:46.081Z,0
2017-07-16T01:46:58.682Z,0
2017-07-16T01:48:10.625Z,0
2017-07-16T01:49:23.268Z,0
2017-07-16T01:50:35.839Z,0
2017-07-16T01:51:48.362Z,0
2017-07-16T01:53:00.681Z,0
2017-07-16T01:54:12.335Z,0
2017-07-16T01:55:24.331Z,0
2017-07-16T01:56:36.905Z,0
2017-07-16T01:57:49.524Z,0
2017-07-16T01:59:01.461Z,0
2017-07-16T02:00:13.413Z,0
2017-07-16T02:01:25.416Z,0
2017-07-16T02:02:37.988Z,0
2017-07-16T02:03:50.576Z,0
2017-07-16T02:05:02.540Z,0
2017-07-16T02:06:14.838Z,0
2017-07-16T02:07:27.090Z,0
2017-07-16T02:08:39.058Z,0
2017-07-16T02:09:51.332Z,0
2017-07-16T02:11:03.924Z,0
2017-07-16T02:12:16.503Z,0
2017-07-16T02:13:28.837Z,0
2017-07-16T02:14:40.194Z,0
2017-07-16T02:15:52.785Z,0
2017-07-16T02:17:05.353Z,4
2017-07-16T02:18:17.640Z,4
2017-07-16T02:19:29.328Z,4
2017-07-16T02:20:41.965Z,0
2017-07-16T02:21:54.292Z,4
2017-07-16T02:23:06.560Z,4
2017-07-16T02:24:17.306Z,4
2017-07-16T02:25:29.910Z,4
2017-07-16T02:26:42.472Z,8
2017-07-16T02:27:53.800Z,8
2017-07-16T02:29:06.036Z,8
2017-07-16T02:30:18.315Z,12
2017-07-16T02:31:30.649Z,12
2017-07-16T02:32:42.592Z,12
2017-07-16T02:33:54.898Z,16
2017-07-16T02:35:07.138Z,16
2017-07-16T02:36:19.492Z,20
2017-07-16T02:37:31.823Z,20
2017-07-16T02:38:44.103Z,24
2017-07-16T02:39:56.325Z,28
2017-07-16T02:41:08.618Z,32
2017-07-16T02:42:20.909Z,40
2017-07-16T02:43:33.517Z,44
2017-07-16T02:44:46.042Z,52
2017-07-16T02:45:58.302Z,56
2017-07-16T02:47:10.314Z,64
2017-07-16T02:48:22.300Z,72
2017-07-16T02:49:34.879Z,84
2017-07-16T02:50:46.890Z,96
2017-07-16T02:51:59.225Z,108
2017-07-16T02:53:11.827Z,116
2017-07-16T02:54:24.091Z,136
2017-07-16T02:55:36.437Z,148
2017-07-16T02:56:49.078Z,164
2017-07-16T02:58:01.362Z,184
2017-07-16T02:59:13.981Z,200
2017-07-16T03:00:26.621Z,216
2017-07-16T03:01:39.263Z,240
2017-07-16T03:02:51.900Z,264
2017-07-16T03:04:03.823Z,284
2017-07-16T03:05:15.810Z,312
2017-07-16T03:06:28.408Z,336
2017-07-16T03:07:41.056Z,364
2017-07-16T03:08:53.661Z,392
2017-07-16T03:10:06.289Z,420
2017-07-16T03:11:18.267Z,456
2017-07-16T03:12:30.863Z,488
2017-07-16T03:13:43.175Z,520
2017-07-16T03:14:55.771Z,552
2017-07-16T03:16:08.024Z,588
2017-07-16T03:17:19.668Z,620
2017-07-16T03:18:32.273Z,660
2017-07-16T03:19:44.239Z,696
2017-07-16T03:20:56.160Z,732
2017-07-16T03:22:08.736Z,772
2017-07-16T03:23:20.392Z,820
2017-07-16T03:24:32.052Z,868
2017-07-16T03:25:43.717Z,916
2017-07-16T03:26:56.276Z,972
2017-07-16T03:28:08.833Z,1024
2017-07-16T03:29:21.418Z,1072
2017-07-16T03:30:34.049Z,1124
2017-07-16T03:31:46.681Z,1172
2017-07-16T03:32:59.329Z,1224
2017-07-16T03:34:11.937Z,1280
2017-07-16T03:35:23.866Z,1328
2017-07-16T03:36:36.510Z,1372
2017-07-16T03:37:48.827Z,1416
2017-07-16T03:39:01.424Z,1464
2017-07-16T03:40:14.042Z,1504
2017-07-16T03:41:26.645Z,1552
2017-07-16T03:42:39.224Z,1596
2017-07-16T03:43:51.506Z,1640
2017-07-16T03:45:04.064Z,1684
2017-07-16T03:46:16.358Z,1740
2017-07-16T03:47:28.628Z,1788
2017-07-16T03:48:41.190Z,1840
2017-07-16T03:49:53.712Z,1884
2017-07-16T03:51:06.301Z,1932
2017-07-16T03:52:18.904Z,1984
2017-07-16T03:53:31.153Z,2040
2017-07-16T03:54:43.386Z,2088
2017-07-16T03:55:55.324Z,2140
2017-07-16T03:57:07.679Z,2184
2017-07-16T03:58:19.699Z,2236
2017-07-16T03:59:31.977Z,2288
2017-07-16T04:00:43.561Z,2344
2017-07-16T04:01:55.475Z,2400
2017-07-16T04:03:07.453Z,2460
2017-07-16T04:04:20.085Z,2516
2017-07-16T04:05:32.735Z,2568
2017-07-16T04:06:45.330Z,2612
2017-07-16T04:07:57.307Z,2656
2017-07-16T04:09:09.271Z,2700
2017-07-16T04:10:21.866Z,2756
2017-07-16T04:11:34.130Z,2812
2017-07-16T04:12:46.422Z,2864
2017-07-16T04:13:58.423Z,2916
2017-07-16T04:15:10.677Z,2952
2017-07-16T04:16:23.246Z,2984
2017-07-16T04:17:35.269Z,3012
2017-07-16T04:18:47.868Z,3052
2017-07-16T04:20:00.169Z,3092
2017-07-16T04:21:12.824Z,3116
2017-07-16T04:22:25.331Z,3148
2017-07-16T04:23:37.276Z,3168
2017-07-16T04:24:49.610Z,3196
2017-07-16T04:26:02.194Z,3220
2017-07-16T04:27:14.440Z,3260
2017-07-16T04:28:26.753Z,3304
2017-07-16T04:29:39.032Z,3356
2017-07-16T04:30:50.986Z,3404
2017-07-16T04:32:03.344Z,3444
2017-07-16T04:33:15.939Z,3476
2017-07-16T04:34:28.236Z,3516
2017-07-16T04:35:40.183Z,3552
2017-07-16T04:36:52.501Z,3596
2017-07-16T04:38:05.061Z,3616
2017-07-16T04:39:17.369Z,3656
2017-07-16T04:40:29.342Z,3700
2017-07-16T04:41:42.020Z,3736
2017-07-16T04:42:54.655Z,3800
2017-07-16T04:44:07.182Z,3840
2017-07-16T04:45:19.115Z,3876
2017-07-16T04:46:31.782Z,3880
2017-07-16T04:47:44.439Z,3864
2017-07-16T04:48:57.048Z,3756
2017-07-16T04:50:08.754Z,3492
2017-07-16T04:51:20.102Z,3732
2017-07-16T04:52:32.049Z,3564
2017-07-16T04:53:44.400Z,3472
2017-07-16T04:54:56.401Z,3752
2017-07-16T04:56:08.705Z,3980
2017-07-16T04:57:21.305Z,4032
2017-07-16T04:58:33.940Z,3876
2017-07-16T04:59:46.260Z,3648
2017-07-16T05:00:58.545Z,4008
2017-07-16T05:02:11.202Z,4204
2017-07-16T05:03:23.839Z,4280
2017-07-16T05:04:36.434Z,4356
2017-07-16T05:05:48.711Z,4416
2017-07-16T05:07:01.001Z,4488
2017-07-16T05:08:12.920Z,4620
2017-07-16T05:09:25.227Z,4704
2017-07-16T05:10:37.794Z,4744
2017-07-16T05:11:50.421Z,4772
2017-07-16T05:13:02.406Z,4772
2017-07-16T05:14:14.092Z,4748
2017-07-16T05:15:26.690Z,4752
2017-07-16T05:16:39.003Z,4736
2017-07-16T05:17:51.567Z,4732
2017-07-16T05:19:03.892Z,4804
2017-07-16T05:20:16.184Z,5016
2017-07-16T05:21:28.781Z,4944
2017-07-16T05:22:40.509Z,5072
2017-07-16T05:23:52.203Z,5056
2017-07-16T05:25:04.163Z,6292
2017-07-16T05:26:16.739Z,7516
2017-07-16T05:27:29.387Z,7952
2017-07-16T05:28:42.021Z,9208
2017-07-16T05:29:54.615Z,7144
2017-07-16T05:31:06.839Z,13692
2017-07-16T05:32:18.845Z,31392
2017-07-16T05:33:31.737Z,39360
2017-07-16T05:34:44.337Z,32832
2017-07-16T05:35:56.629Z,14968
2017-07-16T05:37:09.267Z,17664
2017-07-16T05:38:21.223Z,18784
2017-07-16T05:39:33.499Z,9312
2017-07-16T05:40:46.129Z,7796
2017-07-16T05:41:58.391Z,6760
2017-07-16T05:43:11.034Z,7012
2017-07-16T05:44:23.710Z,7328
2017-07-16T05:45:35.988Z,8320
2017-07-16T05:46:48.252Z,10536
2017-07-16T05:48:00.300Z,12444
2017-07-16T05:49:12.272Z,15380
2017-07-16T05:50:24.285Z,13924
2017-07-16T05:51:36.919Z,11988
2017-07-16T05:52:49.577Z,11980
2017-07-16T05:54:02.194Z,12752
2017-07-16T05:55:14.476Z,12240
2017-07-16T05:56:27.101Z,12256
2017-07-16T05:57:39.656Z,11940
2017-07-16T05:58:51.964Z,12540
2017-07-16T06:00:04.256Z,12196
2017-07-16T06:01:16.853Z,12224
2017-07-16T06:02:29.426Z,12172
2017-07-16T06:03:41.753Z,12288
2017-07-16T06:04:54.337Z,12380
2017-07-16T06:06:06.677Z,11780
2017-07-16T06:07:18.632Z,11912
2017-07-16T06:08:30.909Z,12800
2017-07-16T06:09:42.965Z,14108
2017-07-16T06:10:55.183Z,14828
2017-07-16T06:12:06.531Z,14940
2017-07-16T06:13:17.910Z,14744
2017-07-16T06:14:30.198Z,14528
2017-07-16T06:15:42.420Z,14628
2017-07-16T06:16:54.714Z,14892
2017-07-16T06:18:06.970Z,15016
2017-07-16T06:19:19.281Z,15032
2017-07-16T06:20:31.606Z,15208
2017-07-16T06:21:44.232Z,15428
2017-07-16T06:22:56.526Z,15652
2017-07-16T06:24:07.846Z,16256
2017-07-16T06:25:20.162Z,16592
2017-07-16T06:26:32.758Z,17160
2017-07-16T06:27:45.336Z,18368
2017-07-16T06:28:57.650Z,19328
2017-07-16T06:30:09.346Z,19872
2017-07-16T06:31:21.357Z,21120
2017-07-16T06:32:33.911Z,21216
2017-07-16T06:33:45.867Z,20416
2017-07-16T06:34:57.880Z,20832
2017-07-16T06:36:10.206Z,20320
2017-07-16T06:37:22.822Z,20128
2017-07-16T06:38:35.077Z,20512
2017-07-16T06:39:47.713Z,19840
2017-07-16T06:41:00.315Z,19296
2017-07-16T06:42:11.983Z,18880
2017-07-16T06:43:24.592Z,19328
2017-07-16T06:44:36.897Z,18560
2017-07-16T06:45:49.139Z,17792
2017-07-16T06:47:01.113Z,18112
2017-07-16T06:48:13.686Z,18688
2017-07-16T06:49:26.291Z,19648
2017-07-16T06:50:38.218Z,20704
2017-07-16T06:51:50.471Z,21984
2017-07-16T06:53:02.718Z,22912
2017-07-16T06:54:14.988Z,24416
2017-07-16T06:55:26.932Z,24384
2017-07-16T06:56:39.604Z,23776
2017-07-16T06:57:51.891Z,23680
2017-07-16T06:59:04.219Z,23232
2017-07-16T07:00:16.247Z,23424
2017-07-16T07:01:28.851Z,25504
2017-07-16T07:02:40.833Z,26368
2017-07-16T07:03:52.534Z,30144
2017-07-16T07:05:05.177Z,34944
2017-07-16T07:06:17.140Z,38976
2017-07-16T07:07:29.101Z,44288
2017-07-16T07:08:41.417Z,42016
2017-07-16T07:09:52.748Z,42592
2017-07-16T07:11:04.432Z,44512
2017-07-16T07:12:16.401Z,42656
2017-07-16T07:13:28.951Z,51328
2017-07-16T07:14:41.570Z,50496
2017-07-16T07:15:53.564Z,42112
2017-07-16T07:17:06.213Z,48928
2017-07-16T07:18:18.237Z,46016
2017-07-16T07:19:30.550Z,47264
2017-07-16T07:20:43.246Z,53152
2017-07-16T07:21:55.900Z,54944
2017-07-16T07:23:07.942Z,55616
2017-07-16T07:24:19.598Z,51904
2017-07-16T07:25:31.908Z,51488
2017-07-16T07:26:43.932Z,46144
2017-07-16T07:27:56.218Z,40448
2017-07-16T07:29:08.858Z,35968
2017-07-16T07:30:21.465Z,35904
2017-07-16T07:31:34.011Z,36640
2017-07-16T07:32:46.300Z,34816
2017-07-16T07:33:58.623Z,34560
2017-07-16T07:35:10.890Z,33120
2017-07-16T07:36:23.222Z,32992
2017-07-16T07:37:34.917Z,38688
2017-07-16T07:38:46.587Z,36896
2017-07-16T07:39:59.169Z,38528
2017-07-16T07:41:11.547Z,40064
2017-07-16T07:42:24.152Z,44960
2017-07-16T07:43:36.440Z,55136
2017-07-16T07:44:48.094Z,57056
2017-07-16T07:46:00.065Z,45600
2017-07-16T07:47:12.373Z,54144
2017-07-16T07:48:24.937Z,47072
2017-07-16T07:49:37.553Z,42240
2017-07-16T07:50:49.854Z,42208
2017-07-16T07:52:02.175Z,43776
2017-07-16T07:53:14.442Z,35904
2017-07-16T07:54:26.742Z,43552
2017-07-16T07:55:39.083Z,50080
2017-07-16T07:56:51.410Z,54688
2017-07-16T07:58:04.010Z,56416
2017-07-16T07:59:16.319Z,47072
2017-07-16T08:00:28.914Z,33184
2017-07-16T08:01:40.899Z,47200
2017-07-16T08:02:53.275Z,52032
2017-07-16T08:04:05.528Z,54240
2017-07-16T08:05:17.797Z,41344
2017-07-16T08:06:30.392Z,36000
2017-07-16T08:07:42.714Z,50976
2017-07-16T08:08:55.264Z,46944
2017-07-16T08:10:07.580Z,57792
2017-07-16T08:11:19.898Z,63808
2017-07-16T08:12:32.200Z,77184
2017-07-16T08:13:44.530Z,97600
2017-07-16T08:14:56.866Z,91232
2017-07-16T08:16:09.135Z,89888
2017-07-16T08:17:21.751Z,75744
2017-07-16T08:18:34.341Z,57184
2017-07-16T08:19:46.625Z,55872
2017-07-16T08:20:58.896Z,48928
2017-07-16T08:22:10.307Z,55104
2017-07-16T08:23:21.387Z,51168
2017-07-16T08:24:32.795Z,52800
2017-07-16T08:25:45.410Z,46880
2017-07-16T08:26:57.779Z,40032
2017-07-16T08:28:10.086Z,46272
2017-07-16T08:29:22.115Z,39232
2017-07-16T08:30:34.768Z,38208
2017-07-16T08:31:47.382Z,42368
2017-07-16T08:32:59.630Z,48192
2017-07-16T08:34:11.312Z,80448
2017-07-16T08:35:23.576Z,51744
2017-07-16T08:36:35.865Z,59072
2017-07-16T08:37:48.453Z,52416
2017-07-16T08:39:00.709Z,47104
2017-07-16T08:40:13.279Z,46272
2017-07-16T08:41:25.906Z,48544
2017-07-16T08:42:38.769Z,43136
2017-07-16T08:43:51.036Z,41408
2017-07-16T08:45:03.424Z,39456
2017-07-16T08:46:14.759Z,39392
2017-07-16T08:47:27.092Z,38528
2017-07-16T08:48:39.382Z,38784
2017-07-16T08:49:51.721Z,43712
2017-07-16T08:51:04.030Z,43168
2017-07-16T08:52:16.369Z,46240
2017-07-16T08:53:28.985Z,42080
2017-07-16T08:54:40.694Z,43456
2017-07-16T08:55:52.701Z,41952
2017-07-16T08:57:05.349Z,46496
2017-07-16T08:58:17.366Z,41184
2017-07-16T08:59:29.970Z,43648
2017-07-16T09:00:42.318Z,49920
2017-07-16T09:01:54.990Z,59296
2017-07-16T09:03:07.325Z,54816
2017-07-16T09:04:19.304Z,65824
2017-07-16T09:05:31.641Z,51488
2017-07-16T09:06:43.612Z,52608
2017-07-16T09:07:55.691Z,52352
2017-07-16T09:09:08.003Z,49056
2017-07-16T09:10:20.252Z,45056
2017-07-16T09:11:32.550Z,45408
2017-07-16T09:12:44.218Z,42496
2017-07-16T09:13:56.789Z,41472
2017-07-16T09:15:08.465Z,41984
2017-07-16T09:16:20.699Z,43040
2017-07-16T09:17:33.283Z,42720
2017-07-16T09:18:44.954Z,41056
2017-07-16T09:19:57.288Z,39968
2017-07-16T09:21:09.616Z,39232
2017-07-16T09:22:22.227Z,39904
2017-07-16T09:23:32.964Z,38784
2017-07-16T09:24:44.908Z,36448
2017-07-16T09:25:56.898Z,35008
2017-07-16T09:27:09.166Z,35232
2017-07-16T09:28:21.496Z,35232
2017-07-16T09:29:34.096Z,35008
2017-07-16T09:30:46.411Z,34912
2017-07-16T09:31:58.693Z,34944
2017-07-16T09:33:10.637Z,34912
2017-07-16T09:34:22.950Z,34944
2017-07-16T09:35:35.558Z,34912
2017-07-16T09:36:48.165Z,35008
2017-07-16T09:38:00.501Z,35264
2017-07-16T09:39:13.130Z,35584
2017-07-16T09:40:25.399Z,37184
2017-07-16T09:41:37.711Z,39680
2017-07-16T09:42:50.022Z,43264
2017-07-16T09:44:02.295Z,46432
2017-07-16T09:45:14.334Z,45024
2017-07-16T09:46:26.635Z,41248
2017-07-16T09:47:39.556Z,38240
2017-07-16T09:48:51.629Z,34176
2017-07-16T09:50:03.985Z,33216
2017-07-16T09:51:16.560Z,32768
2017-07-16T09:52:29.205Z,31840
2017-07-16T09:53:41.516Z,30400
2017-07-16T09:54:54.161Z,27808
2017-07-16T09:56:06.474Z,24832
2017-07-16T09:57:18.507Z,22176
2017-07-16T09:58:30.819Z,21888
2017-07-16T09:59:42.782Z,22368
2017-07-16T10:00:55.130Z,23744
2017-07-16T10:02:07.466Z,26560
2017-07-16T10:03:20.075Z,27456
2017-07-16T10:04:32.668Z,27424
2017-07-16T10:05:44.648Z,29248
2017-07-16T10:06:56.943Z,33920
2017-07-16T10:08:07.989Z,30048
2017-07-16T10:09:20.644Z,31136
2017-07-16T10:10:32.938Z,31840
2017-07-16T10:11:45.233Z,31072
2017-07-16T10:12:57.551Z,29152
2017-07-16T10:14:09.484Z,28512
2017-07-16T10:15:21.806Z,29024
2017-07-16T10:16:34.133Z,30528
2017-07-16T10:17:45.845Z,33472
2017-07-16T10:18:57.201Z,36064
2017-07-16T10:20:08.873Z,38912
2017-07-16T10:21:21.465Z,41184
2017-07-16T10:22:33.435Z,42048
2017-07-16T10:23:45.427Z,40128
2017-07-16T10:24:58.134Z,38208
2017-07-16T10:26:10.154Z,37120
2017-07-16T10:27:22.096Z,35552
2017-07-16T10:28:34.684Z,34272
2017-07-16T10:29:47.050Z,32800
2017-07-16T10:30:59.638Z,30816
2017-07-16T10:32:11.678Z,29920
2017-07-16T10:33:24.346Z,29824
2017-07-16T10:34:36.941Z,32352
2017-07-16T10:35:49.587Z,36064
2017-07-16T10:37:02.205Z,41280
2017-07-16T10:38:13.583Z,42976
2017-07-16T10:39:25.629Z,49376
2017-07-16T10:40:38.270Z,49440
2017-07-16T10:41:50.534Z,51936
2017-07-16T10:43:02.863Z,51488
2017-07-16T10:44:14.840Z,59232
2017-07-16T10:45:27.411Z,71232
2017-07-16T10:46:39.974Z,54400
2017-07-16T10:47:52.322Z,56288
2017-07-16T10:49:04.565Z,54944
2017-07-16T10:50:15.940Z,44160
2017-07-16T10:51:27.976Z,43680
2017-07-16T10:52:39.965Z,42272
2017-07-16T10:53:52.636Z,40928
2017-07-16T10:55:04.913Z,39616
2017-07-16T10:56:16.835Z,38688
2017-07-16T10:57:29.126Z,38656
2017-07-16T10:58:41.709Z,36992
2017-07-16T10:59:54.354Z,34816
2017-07-16T11:01:06.328Z,35424
2017-07-16T11:02:18.899Z,36224
2017-07-16T11:03:31.446Z,35040
2017-07-16T11:04:43.739Z,34016
2017-07-16T11:05:56.353Z,33536
2017-07-16T11:07:08.619Z,36064
2017-07-16T11:08:21.229Z,37344
2017-07-16T11:09:33.523Z,35200
2017-07-16T11:10:45.494Z,34304
2017-07-16T11:11:58.098Z,33280
2017-07-16T11:13:09.764Z,33696
2017-07-16T11:14:22.357Z,34816
2017-07-16T11:15:34.628Z,36512
2017-07-16T11:16:46.246Z,37760
2017-07-16T11:17:58.250Z,42336
2017-07-16T11:19:09.945Z,39392
2017-07-16T11:20:22.254Z,41088
2017-07-16T11:21:34.601Z,40128
2017-07-16T11:22:45.949Z,40096
2017-07-16T11:23:57.921Z,39360
2017-07-16T11:25:09.582Z,38464
2017-07-16T11:26:21.896Z,37152
2017-07-16T11:27:33.861Z,36288
2017-07-16T11:28:45.544Z,36160
2017-07-16T11:29:57.550Z,36064
2017-07-16T11:31:10.172Z,34976
2017-07-16T11:32:22.449Z,33152
2017-07-16T11:33:34.745Z,31840
2017-07-16T11:34:47.052Z,31232
2017-07-16T11:35:59.063Z,31200
2017-07-16T11:37:11.358Z,31168
2017-07-16T11:38:23.974Z,31104
2017-07-16T11:39:35.937Z,31072
2017-07-16T11:40:48.590Z,31616
2017-07-16T11:42:00.273Z,32256
2017-07-16T11:43:11.957Z,32544
2017-07-16T11:44:23.935Z,32352
2017-07-16T11:45:35.911Z,31968
2017-07-16T11:46:48.572Z,31264
2017-07-16T11:48:00.907Z,30720
2017-07-16T11:49:12.913Z,30176
2017-07-16T11:50:24.934Z,29536
2017-07-16T11:51:37.534Z,28672
2017-07-16T11:52:50.174Z,27520
2017-07-16T11:54:02.450Z,26144
2017-07-16T11:55:14.697Z,24384
2017-07-16T11:56:26.718Z,21920
2017-07-16T11:57:39.400Z,18848
2017-07-16T11:58:52.066Z,15944
2017-07-16T12:00:04.344Z,14116
2017-07-16T12:01:16.627Z,13224
2017-07-16T12:02:29.242Z,13092
2017-07-16T12:03:41.490Z,13392
2017-07-16T12:04:53.829Z,13672
2017-07-16T12:06:06.409Z,14028
2017-07-16T12:07:18.958Z,15056
2017-07-16T12:08:31.609Z,16856
2017-07-16T12:09:43.594Z,18912
2017-07-16T12:10:55.694Z,20352
2017-07-16T12:12:08.015Z,21376
2017-07-16T12:13:20.012Z,22656
2017-07-16T12:14:32.337Z,24320
2017-07-16T12:15:43.673Z,25728
2017-07-16T12:16:55.678Z,27072
2017-07-16T12:18:08.071Z,28480
2017-07-16T12:19:19.987Z,30048
2017-07-16T12:20:32.609Z,31808
2017-07-16T12:21:45.192Z,33600
2017-07-16T12:22:57.452Z,34816
2017-07-16T12:24:10.035Z,35008
2017-07-16T12:25:22.014Z,34624
2017-07-16T12:26:34.301Z,34560
2017-07-16T12:27:46.942Z,35104
2017-07-16T12:28:59.579Z,36032
2017-07-16T12:30:12.175Z,36640
2017-07-16T12:31:24.181Z,36448
2017-07-16T12:32:36.453Z,36064
2017-07-16T12:33:49.117Z,35712
2017-07-16T12:35:00.824Z,35648
2017-07-16T12:36:12.461Z,36192
2017-07-16T12:37:24.492Z,37472
2017-07-16T12:38:37.120Z,38944
2017-07-16T12:39:49.144Z,38816
2017-07-16T12:41:01.115Z,37824
2017-07-16T12:42:12.791Z,36480
2017-07-16T12:43:25.440Z,35360
2017-07-16T12:44:38.033Z,34208
2017-07-16T12:45:50.354Z,33056
2017-07-16T12:47:02.995Z,31936
2017-07-16T12:48:15.613Z,30752
2017-07-16T12:49:28.244Z,29504
2017-07-16T12:50:40.579Z,28640
2017-07-16T12:51:53.130Z,28128
2017-07-16T12:53:04.796Z,27904
2017-07-16T12:54:17.111Z,27584
2017-07-16T12:55:29.114Z,27168
2017-07-16T12:56:41.365Z,26784
2017-07-16T12:57:53.712Z,26176
2017-07-16T12:59:06.038Z,25792
2017-07-16T13:00:18.052Z,25600
2017-07-16T13:01:30.374Z,25344
2017-07-16T13:02:42.944Z,24768
2017-07-16T13:03:54.990Z,23936
2017-07-16T13:05:06.957Z,23040
2017-07-16T13:06:19.602Z,22240
2017-07-16T13:07:31.605Z,21760
2017-07-16T13:08:43.914Z,21216
2017-07-16T13:09:56.602Z,20864
2017-07-16T13:11:09.160Z,21056
2017-07-16T13:12:21.460Z,21952
2017-07-16T13:13:33.773Z,23328
2017-07-16T13:14:45.723Z,24640
2017-07-16T13:15:58.080Z,25440
2017-07-16T13:17:09.759Z,25824
2017-07-16T13:18:22.317Z,26240
2017-07-16T13:19:34.584Z,27040
2017-07-16T13:20:46.841Z,27584
2017-07-16T13:21:59.526Z,26848
2017-07-16T13:23:11.863Z,25888
2017-07-16T13:24:23.495Z,25280
2017-07-16T13:25:35.824Z,24672
2017-07-16T13:26:47.812Z,24096
2017-07-16T13:27:59.845Z,23520
2017-07-16T13:29:12.117Z,23328
2017-07-16T13:30:24.697Z,24128
2017-07-16T13:31:36.645Z,26112
2017-07-16T13:32:49.264Z,27968
2017-07-16T13:34:01.516Z,28512
2017-07-16T13:35:13.183Z,28160
2017-07-16T13:36:24.554Z,27040
2017-07-16T13:37:35.607Z,25888
2017-07-16T13:38:47.580Z,25120
2017-07-16T13:39:59.658Z,25056
2017-07-16T13:41:11.023Z,25408
2017-07-16T13:42:23.307Z,26240
2017-07-16T13:43:35.639Z,26720
2017-07-16T13:44:47.623Z,26336
2017-07-16T13:46:00.247Z,25696
2017-07-16T13:47:12.545Z,24928
2017-07-16T13:48:24.861Z,24512
2017-07-16T13:49:36.793Z,23776
2017-07-16T13:50:49.402Z,23584
2017-07-16T13:52:01.697Z,21344
2017-07-16T13:53:13.994Z,19808
2017-07-16T13:54:25.989Z,18784
2017-07-16T13:55:38.235Z,17888
2017-07-16T13:56:50.498Z,16668
2017-07-16T13:58:02.489Z,15772
2017-07-16T13:59:15.124Z,14860
2017-07-16T14:00:27.390Z,14184
2017-07-16T14:01:39.618Z,13560
2017-07-16T14:02:52.254Z,13092
2017-07-16T14:04:04.514Z,12832
2017-07-16T14:05:17.133Z,12676
2017-07-16T14:06:29.262Z,12636
2017-07-16T14:07:41.907Z,12500
2017-07-16T14:08:54.563Z,12476
2017-07-16T14:10:06.864Z,12572
2017-07-16T14:11:18.890Z,12864
2017-07-16T14:12:30.895Z,13408
2017-07-16T14:13:42.818Z,14204
2017-07-16T14:14:55.426Z,15232
2017-07-16T14:16:07.091Z,16172
2017-07-16T14:17:19.362Z,16652
2017-07-16T14:18:31.644Z,16676
2017-07-16T14:19:44.233Z,16452
2017-07-16T14:20:56.849Z,16268
2017-07-16T14:22:08.830Z,16216
2017-07-16T14:23:20.496Z,16212
2017-07-16T14:24:31.837Z,16320
2017-07-16T14:25:44.123Z,16412
2017-07-16T14:26:55.809Z,16340
2017-07-16T14:28:08.032Z,16356
2017-07-16T14:29:20.702Z,16496
2017-07-16T14:30:32.971Z,16292
2017-07-16T14:31:45.569Z,15548
2017-07-16T14:32:57.241Z,14632
2017-07-16T14:34:09.847Z,13728
2017-07-16T14:35:22.228Z,12872
2017-07-16T14:36:34.239Z,11556
2017-07-16T14:37:46.168Z,10404
2017-07-16T14:38:58.181Z,9200
2017-07-16T14:40:09.789Z,8532
2017-07-16T14:41:22.442Z,8524
2017-07-16T14:42:35.054Z,8812
2017-07-16T14:43:47.014Z,9488
2017-07-16T14:44:59.243Z,10420
2017-07-16T14:46:11.798Z,11124
2017-07-16T14:47:23.744Z,11764
2017-07-16T14:48:35.443Z,12460
2017-07-16T14:49:48.054Z,12580
2017-07-16T14:51:00.011Z,12216
2017-07-16T14:52:12.047Z,10992
2017-07-16T14:53:24.760Z,9580
2017-07-16T14:54:37.066Z,8800
2017-07-16T14:55:49.684Z,8744
2017-07-16T14:57:02.282Z,9496
2017-07-16T14:58:14.240Z,10764
2017-07-16T14:59:26.870Z,12172
2017-07-16T15:00:38.855Z,13580
2017-07-16T15:01:51.405Z,14472
2017-07-16T15:03:03.369Z,15264
2017-07-16T15:04:15.035Z,15916
2017-07-16T15:05:27.601Z,16628
2017-07-16T15:06:39.924Z,16940
2017-07-16T15:07:52.597Z,16600
2017-07-16T15:09:04.903Z,15808
2017-07-16T15:10:16.560Z,15240
2017-07-16T15:11:29.194Z,15236
2017-07-16T15:12:41.173Z,15448
2017-07-16T15:13:53.458Z,15440
2017-07-16T15:15:05.466Z,14884
2017-07-16T15:16:18.073Z,14020
2017-07-16T15:17:30.009Z,13092
2017-07-16T15:18:42.630Z,12016
2017-07-16T15:19:54.852Z,11188
2017-07-16T15:21:07.483Z,10476
2017-07-16T15:22:19.503Z,9932
2017-07-16T15:23:31.905Z,9428
2017-07-16T15:24:44.209Z,9064
2017-07-16T15:25:55.907Z,9044
2017-07-16T15:27:08.186Z,9220
2017-07-16T15:28:20.533Z,9268
2017-07-16T15:29:32.547Z,8708
2017-07-16T15:30:44.865Z,7960
2017-07-16T15:31:56.535Z,7232
2017-07-16T15:33:09.112Z,6676
2017-07-16T15:34:21.755Z,6580
2017-07-16T15:35:34.010Z,7296
2017-07-16T15:36:46.319Z,8768
2017-07-16T15:37:58.602Z,10120
2017-07-16T15:39:10.585Z,11036
2017-07-16T15:40:22.905Z,11160
2017-07-16T15:41:35.218Z,10900
2017-07-16T15:42:47.572Z,10460
2017-07-16T15:43:59.870Z,10076
2017-07-16T15:45:11.834Z,9508
2017-07-16T15:46:24.129Z,8760
2017-07-16T15:47:35.767Z,8252
2017-07-16T15:48:48.057Z,8092
2017-07-16T15:50:00.634Z,8320
2017-07-16T15:51:12.938Z,8480
2017-07-16T15:52:25.516Z,8652
2017-07-16T15:53:37.779Z,8568
2017-07-16T15:54:50.458Z,8260
2017-07-16T15:56:03.044Z,8020
2017-07-16T15:57:14.771Z,8140
2017-07-16T15:58:26.409Z,8636
2017-07-16T15:59:39.071Z,9232
2017-07-16T16:00:51.705Z,9700